createdAt,value
2018-08-12T00:00:50.358Z,57.86
2018-08-12T00:03:20.222Z,58.47
2018-08-12T00:05:50.080Z,58.91
2018-08-12T00:08:19.767Z,59.00
2018-08-12T00:10:49.632Z,57.63
2018-08-12T00:13:19.332Z,57.63
2018-08-12T00:15:49.057Z,57.67
2018-08-12T00:18:18.716Z,58.62
2018-08-12T00:20:48.435Z,59.21
2018-08-12T00:23:19.229Z,58.92
2018-08-12T00:25:48.817Z,59.74
2018-08-12T00:28:18.442Z,60.15
2018-08-12T00:30:48.286Z,60.22
2018-08-12T00:33:17.844Z,60.28
2018-08-12T00:35:47.448Z,61.40
2018-08-12T00:38:17.074Z,61.60
2018-08-12T00:40:46.819Z,61.69
2018-08-12T00:43:16.716Z,61.20
2018-08-12T00:45:46.535Z,60.67
2018-08-12T00:48:15.897Z,61.48
2018-08-12T00:50:45.400Z,60.80
2018-08-12T00:53:15.059Z,60.94
2018-08-12T00:55:44.631Z,61.71
2018-08-12T00:58:14.393Z,61.63
2018-08-12T01:00:44.007Z,61.52
2018-08-12T01:03:13.588Z,61.57
2018-08-12T01:05:43.167Z,61.28
2018-08-12T01:08:12.891Z,61.46
2018-08-12T01:10:42.670Z,62.00
2018-08-12T01:13:12.323Z,62.12
2018-08-12T01:15:42.145Z,62.43
2018-08-12T01:18:11.828Z,62.23
2018-08-12T01:20:41.458Z,61.63
2018-08-12T01:23:11.315Z,62.17
2018-08-12T01:25:41.073Z,62.72
2018-08-12T01:28:10.592Z,62.83
2018-08-12T01:30:40.415Z,62.58
2018-08-12T01:33:10.082Z,62.92
2018-08-12T01:35:39.846Z,62.99
2018-08-12T01:38:09.372Z,63.36
2018-08-12T01:40:39.119Z,62.55
2018-08-12T01:43:08.702Z,62.63
2018-08-12T01:45:38.325Z,62.18
2018-08-12T01:48:09.009Z,62.10
2018-08-12T01:50:38.606Z,62.09
2018-08-12T01:53:15.765Z,61.99
2018-08-12T01:55:45.210Z,62.37
2018-08-12T01:58:14.740Z,61.58
2018-08-12T02:00:44.466Z,61.83
2018-08-12T02:03:14.252Z,61.65
2018-08-12T02:05:43.821Z,61.91
2018-08-12T02:08:13.420Z,62.31
2018-08-12T02:10:43.223Z,62.29
2018-08-12T02:13:12.931Z,62.24
2018-08-12T02:15:42.365Z,62.15
2018-08-12T02:18:12.069Z,62.38
2018-08-12T02:20:41.640Z,61.68
2018-08-12T02:23:11.208Z,62.02
2018-08-12T02:25:40.796Z,61.25
2018-08-12T02:28:10.189Z,62.06
2018-08-12T02:30:39.626Z,62.31
2018-08-12T02:33:09.157Z,62.32
2018-08-12T02:35:38.618Z,62.54
2018-08-12T02:38:08.263Z,62.32
2018-08-12T02:40:37.982Z,62.71
2018-08-12T02:43:07.794Z,62.87
2018-08-12T02:45:37.252Z,62.86
2018-08-12T02:48:06.837Z,63.03
2018-08-12T02:50:36.453Z,62.72
2018-08-12T02:53:06.835Z,63.58
2018-08-12T02:55:36.371Z,63.08
2018-08-12T02:58:06.021Z,63.06
2018-08-12T03:00:35.535Z,63.26
2018-08-12T03:03:05.132Z,62.95
2018-08-12T03:05:34.554Z,64.05
2018-08-12T03:08:04.262Z,64.19
2018-08-12T03:10:33.753Z,63.79
2018-08-12T03:13:03.350Z,64.64
2018-08-12T03:15:33.125Z,64.75
2018-08-12T03:18:02.933Z,64.49
2018-08-12T03:20:32.569Z,64.52
2018-08-12T03:23:02.153Z,64.99
2018-08-12T03:25:31.610Z,65.46
2018-08-12T03:28:01.244Z,65.44
2018-08-12T03:30:30.761Z,65.51
2018-08-12T03:33:00.264Z,65.36
2018-08-12T03:35:30.030Z,66.40
2018-08-12T03:37:59.635Z,65.92
2018-08-12T03:40:29.216Z,66.13
2018-08-12T03:42:58.821Z,66.42
2018-08-12T03:45:28.572Z,66.10
2018-08-12T03:47:59.044Z,65.12
2018-08-12T03:50:28.596Z,66.22
2018-08-12T03:52:58.173Z,65.80
2018-08-12T03:55:27.845Z,65.73
2018-08-12T03:57:57.392Z,66.22
2018-08-12T04:00:27.188Z,65.69
2018-08-12T04:02:56.629Z,65.18
2018-08-12T04:05:26.200Z,64.61
2018-08-12T04:07:55.642Z,64.57
2018-08-12T04:10:25.089Z,63.98
2018-08-12T04:12:54.792Z,62.80
2018-08-12T04:15:24.550Z,63.12
2018-08-12T04:17:54.068Z,63.20
2018-08-12T04:20:23.540Z,62.94
2018-08-12T04:22:53.161Z,61.70
2018-08-12T04:25:22.923Z,59.44
2018-08-12T04:27:52.325Z,57.40
2018-08-12T04:30:21.880Z,56.35
2018-08-12T04:32:51.512Z,55.01
2018-08-12T04:35:21.148Z,53.52
2018-08-12T04:37:50.681Z,51.84
2018-08-12T04:40:20.315Z,51.46
2018-08-12T04:42:49.772Z,50.83
2018-08-12T04:45:19.835Z,49.61
2018-08-12T04:47:49.330Z,48.34
2018-08-12T04:50:18.847Z,47.03
2018-08-12T04:52:48.363Z,46.19
2018-08-12T04:55:17.827Z,44.50
2018-08-12T04:57:47.376Z,44.49
2018-08-12T05:00:16.967Z,43.73
2018-08-12T05:02:46.445Z,42.77
2018-08-12T05:05:15.911Z,42.29
2018-08-12T05:07:45.435Z,40.97
2018-08-12T05:10:15.067Z,40.61
2018-08-12T05:12:44.541Z,39.36
2018-08-12T05:15:13.983Z,40.20
2018-08-12T05:17:43.442Z,39.94
2018-08-12T05:20:13.144Z,37.97
2018-08-12T05:22:42.727Z,37.91
2018-08-12T05:25:12.363Z,38.09
2018-08-12T05:27:41.939Z,37.91
2018-08-12T05:30:12.189Z,37.83
2018-08-12T05:32:42.546Z,38.31
2018-08-12T05:35:13.407Z,36.80
2018-08-12T05:37:43.945Z,36.71
2018-08-12T05:40:13.771Z,34.90
2018-08-12T05:42:43.248Z,34.76
2018-08-12T05:45:12.873Z,35.04
2018-08-12T05:47:42.690Z,34.81
2018-08-12T05:50:12.452Z,35.18
2018-08-12T05:52:42.329Z,34.81
2018-08-12T05:55:11.962Z,33.73
2018-08-12T05:57:41.565Z,33.57
2018-08-12T06:00:13.856Z,33.64
2018-08-12T06:02:44.515Z,32.47
2018-08-12T06:05:14.253Z,32.11
2018-08-12T06:07:43.879Z,32.12
2018-08-12T06:10:14.187Z,31.17
2018-08-12T06:12:43.860Z,29.48
2018-08-12T06:15:17.902Z,29.15
2018-08-12T06:17:47.749Z,31.44
2018-08-12T06:20:18.135Z,29.04
2018-08-12T06:22:47.846Z,28.83
2018-08-12T06:25:17.398Z,29.46
2018-08-12T06:27:46.913Z,28.69
2018-08-12T06:30:16.583Z,27.94
2018-08-12T06:32:46.028Z,30.28
2018-08-12T06:35:15.477Z,30.34
2018-08-12T06:37:45.058Z,29.67
2018-08-12T06:40:15.752Z,28.22
2018-08-12T06:42:46.474Z,28.93
2018-08-12T06:45:18.172Z,29.58
2018-08-12T06:47:48.633Z,29.94
2018-08-12T06:50:18.609Z,26.67
2018-08-12T06:52:48.179Z,27.06
2018-08-12T06:55:17.632Z,27.45
2018-08-12T06:57:47.193Z,28.32
2018-08-12T07:00:18.567Z,28.66
2018-08-12T07:02:48.296Z,26.07
2018-08-12T07:05:18.124Z,26.07
2018-08-12T07:07:47.824Z,26.31
2018-08-12T07:10:17.354Z,27.55
2018-08-12T07:12:47.089Z,27.86
2018-08-12T07:15:18.322Z,26.37
2018-08-12T07:17:48.457Z,26.29
2018-08-12T07:20:18.163Z,25.68
2018-08-12T07:22:47.664Z,24.76
2018-08-12T07:25:17.265Z,26.23
2018-08-12T07:27:46.821Z,26.64
2018-08-12T07:30:17.713Z,27.23
2018-08-12T07:32:47.322Z,26.85
2018-08-12T07:35:17.050Z,26.12
2018-08-12T07:37:46.594Z,26.09
2018-08-12T07:40:19.523Z,26.02
2018-08-12T07:42:50.487Z,25.80
2018-08-12T07:45:20.734Z,25.89
2018-08-12T07:47:50.495Z,26.89
2018-08-12T07:50:19.944Z,26.71
2018-08-12T07:52:49.415Z,26.11
2018-08-12T07:55:18.955Z,24.74
2018-08-12T07:57:48.617Z,23.54
2018-08-12T08:00:19.583Z,25.26
2018-08-12T08:02:49.439Z,25.26
2018-08-12T08:05:19.124Z,23.79
2018-08-12T08:07:48.626Z,22.95
2018-08-12T08:10:18.628Z,24.10
2018-08-12T08:12:48.319Z,24.43
2018-08-12T08:15:21.167Z,23.47
2018-08-12T08:17:51.038Z,21.70
2018-08-12T08:20:20.510Z,21.96
2018-08-12T08:22:50.379Z,21.12
2018-08-12T08:25:20.149Z,21.11
2018-08-12T08:27:49.998Z,21.43
2018-08-12T08:30:19.800Z,21.42
2018-08-12T08:32:49.264Z,21.08
2018-08-12T08:35:18.987Z,20.40
2018-08-12T08:37:48.613Z,20.36
2018-08-12T08:40:18.656Z,19.20
2018-08-12T08:42:48.226Z,20.59
2018-08-12T08:45:20.509Z,19.38
2018-08-12T08:47:51.274Z,20.18
2018-08-12T08:50:22.023Z,19.34
2018-08-12T08:52:51.823Z,19.61
2018-08-12T08:55:21.341Z,20.58
2018-08-12T08:57:51.952Z,21.86
2018-08-12T09:00:22.588Z,20.59
2018-08-12T09:02:53.435Z,20.05
2018-08-12T09:05:23.452Z,20.34
2018-08-12T09:07:53.304Z,20.18
2018-08-12T09:10:22.764Z,19.53
2018-08-12T09:12:52.248Z,19.89
2018-08-12T09:15:22.218Z,19.86
2018-08-12T09:17:52.282Z,20.09
2018-08-12T09:20:22.480Z,19.28
2018-08-12T09:22:53.024Z,19.19
2018-08-12T09:25:22.752Z,19.66
2018-08-12T09:27:52.552Z,19.36
2018-08-12T09:30:22.893Z,19.60
2018-08-12T09:32:52.434Z,18.80
2018-08-12T09:35:22.015Z,18.79
2018-08-12T09:37:51.595Z,19.05
2018-08-12T09:40:21.576Z,19.53
2018-08-12T09:42:51.139Z,19.15
2018-08-12T09:45:21.754Z,19.37
2018-08-12T09:47:51.420Z,19.24
2018-08-12T09:50:21.516Z,19.91
2018-08-12T09:52:52.161Z,20.10
2018-08-12T09:55:21.902Z,19.05
2018-08-12T09:57:51.594Z,18.48
2018-08-12T10:00:27.755Z,17.41
2018-08-12T10:02:58.181Z,18.68
2018-08-12T10:05:27.741Z,18.76
2018-08-12T10:07:58.106Z,20.11
2018-08-12T10:10:27.723Z,19.28
2018-08-12T10:12:57.316Z,20.82
2018-08-12T10:15:26.833Z,20.03
2018-08-12T10:17:58.136Z,20.05
2018-08-12T10:20:28.156Z,19.96
2018-08-12T10:22:57.921Z,19.82
2018-08-12T10:25:27.433Z,19.44
2018-08-12T10:27:56.922Z,19.45
2018-08-12T10:30:26.446Z,20.24
2018-08-12T10:32:55.913Z,20.74
2018-08-12T10:35:25.458Z,18.99
2018-08-12T10:37:54.979Z,19.40
2018-08-12T10:40:24.535Z,21.04
2018-08-12T10:42:53.988Z,18.90
2018-08-12T10:45:23.616Z,19.19
2018-08-12T10:47:53.402Z,20.13
2018-08-12T10:50:23.167Z,19.21
2018-08-12T10:52:52.762Z,19.49
2018-08-12T10:55:23.872Z,19.65
2018-08-12T10:57:53.866Z,18.97
2018-08-12T11:00:26.497Z,18.87
2018-08-12T11:02:56.376Z,17.90
2018-08-12T11:05:26.629Z,17.08
2018-08-12T11:07:57.790Z,17.69
2018-08-12T11:10:28.321Z,17.70
2018-08-12T11:12:58.641Z,17.94
2018-08-12T11:15:28.164Z,18.40
2018-08-12T11:17:59.258Z,18.56
2018-08-12T11:20:29.119Z,19.58
2018-08-12T11:22:58.831Z,18.12
2018-08-12T11:25:28.493Z,18.61
2018-08-12T11:27:58.558Z,18.20
2018-08-12T11:30:28.086Z,17.49
2018-08-12T11:32:57.638Z,17.67
2018-08-12T11:35:27.197Z,16.74
2018-08-12T11:37:56.744Z,17.42
2018-08-12T11:40:26.731Z,19.87
2018-08-12T11:42:56.256Z,20.44
2018-08-12T11:45:26.030Z,19.53
2018-08-12T11:47:55.731Z,19.72
2018-08-12T11:50:29.111Z,22.17
2018-08-12T11:52:58.717Z,22.18
2018-08-12T11:55:28.750Z,23.68
2018-08-12T11:57:59.022Z,24.83
2018-08-12T12:00:28.830Z,25.32
2018-08-12T12:02:58.288Z,25.32
2018-08-12T12:05:27.890Z,24.69
2018-08-12T12:07:57.442Z,25.68
2018-08-12T12:10:27.118Z,26.22
2018-08-12T12:13:09.543Z,26.39
2018-08-12T12:15:57.712Z,26.56
2018-08-12T12:18:28.848Z,26.41
2018-08-12T12:20:58.294Z,26.74
2018-08-12T12:23:28.182Z,27.32
2018-08-12T12:25:58.133Z,26.94
2018-08-12T12:28:27.877Z,26.75
2018-08-12T12:30:57.402Z,26.77
2018-08-12T12:33:26.979Z,26.89
2018-08-12T12:35:56.534Z,26.35
2018-08-12T12:38:26.009Z,25.85
2018-08-12T12:40:55.472Z,25.70
2018-08-12T12:43:25.374Z,25.99
2018-08-12T12:45:55.051Z,26.57
2018-08-12T12:48:24.711Z,26.81
2018-08-12T12:50:54.531Z,26.83
2018-08-12T12:53:24.020Z,26.79
2018-08-12T12:55:54.067Z,26.69
2018-08-12T12:58:23.610Z,26.28
2018-08-12T13:00:53.092Z,25.27
2018-08-12T13:03:22.626Z,25.36
2018-08-12T13:05:52.077Z,25.14
2018-08-12T13:08:21.484Z,25.87
2018-08-12T13:10:51.201Z,26.57
2018-08-12T13:13:20.604Z,26.76
2018-08-12T13:15:50.576Z,26.42
2018-08-12T13:18:20.879Z,27.08
2018-08-12T13:20:50.607Z,26.79
2018-08-12T13:23:20.289Z,26.22
2018-08-12T13:25:49.958Z,25.86
2018-08-12T13:28:19.686Z,26.27
2018-08-12T13:30:49.518Z,26.47
2018-08-12T13:33:19.008Z,25.46
2018-08-12T13:35:48.654Z,25.44
2018-08-12T13:38:18.344Z,26.71
2018-08-12T13:40:47.707Z,26.22
2018-08-12T13:43:17.357Z,26.25
2018-08-12T13:45:47.011Z,26.20
2018-08-12T13:48:16.934Z,26.32
2018-08-12T13:50:46.447Z,26.71
2018-08-12T13:53:43.593Z,27.57
2018-08-12T13:56:12.994Z,26.83
2018-08-12T13:58:42.553Z,27.72
2018-08-12T14:01:12.278Z,26.83
2018-08-12T14:03:42.132Z,27.31
2018-08-12T14:06:11.704Z,27.25
2018-08-12T14:08:41.497Z,26.63
2018-08-12T14:11:11.043Z,26.93
2018-08-12T14:13:40.785Z,27.03
2018-08-12T14:16:10.509Z,27.26
2018-08-12T14:18:40.089Z,27.88
2018-08-12T14:21:09.644Z,28.16
2018-08-12T14:23:39.113Z,28.21
2018-08-12T14:26:08.478Z,27.30
2018-08-12T14:28:38.220Z,27.13
2018-08-12T14:31:07.794Z,27.29
2018-08-12T14:33:37.355Z,27.51
2018-08-12T14:36:07.008Z,27.43
2018-08-12T14:38:36.669Z,26.88
2018-08-12T14:41:06.352Z,26.82
2018-08-12T14:43:35.866Z,26.77
2018-08-12T14:46:05.551Z,27.24
2018-08-12T14:48:35.163Z,26.51
2018-08-12T14:51:04.736Z,27.49
2018-08-12T14:53:34.192Z,26.77
2018-08-12T14:56:03.606Z,26.99
2018-08-12T14:58:33.054Z,27.61
2018-08-12T15:01:02.462Z,27.33
2018-08-12T15:03:32.074Z,27.63
2018-08-12T15:06:01.751Z,27.61
2018-08-12T15:08:31.303Z,27.50
2018-08-12T15:11:00.930Z,27.19
2018-08-12T15:13:30.718Z,27.17
2018-08-12T15:16:01.350Z,27.06
2018-08-12T15:18:30.723Z,26.20
2018-08-12T15:21:00.207Z,27.00
2018-08-12T15:23:29.838Z,27.69
2018-08-12T15:25:59.571Z,26.91
2018-08-12T15:28:29.072Z,26.85
2018-08-12T15:30:58.944Z,26.90
2018-08-12T15:33:28.822Z,27.34
2018-08-12T15:35:58.296Z,26.18
2018-08-12T15:38:28.737Z,27.11
2018-08-12T15:40:58.366Z,26.80
2018-08-12T15:43:27.897Z,26.93
2018-08-12T15:46:01.350Z,27.29
2018-08-12T15:48:30.913Z,27.10
2018-08-12T15:51:01.502Z,26.86
2018-08-12T15:53:31.141Z,27.42
2018-08-12T15:56:00.931Z,27.80
2018-08-12T15:58:30.643Z,27.72
2018-08-12T16:01:00.553Z,27.56
2018-08-12T16:03:30.424Z,27.45
2018-08-12T16:06:00.263Z,27.72
2018-08-12T16:08:30.072Z,26.89
2018-08-12T16:10:59.993Z,27.03
2018-08-12T16:13:29.595Z,27.23
2018-08-12T16:15:59.299Z,27.81
2018-08-12T16:18:28.888Z,27.10
2018-08-12T16:20:58.767Z,27.92
2018-08-12T16:23:28.419Z,27.56
2018-08-12T16:25:58.022Z,28.37
2018-08-12T16:28:27.399Z,28.36
2018-08-12T16:30:57.071Z,28.20
2018-08-12T16:33:26.470Z,28.68
2018-08-12T16:35:56.064Z,28.56
2018-08-12T16:38:25.943Z,28.86
2018-08-12T16:40:56.016Z,28.76
2018-08-12T16:43:25.884Z,28.90
2018-08-12T16:45:55.455Z,29.08
2018-08-12T16:48:25.102Z,29.61
2018-08-12T16:50:54.626Z,29.78
2018-08-12T16:53:24.121Z,30.12
2018-08-12T16:55:53.723Z,29.95
2018-08-12T16:58:23.430Z,31.24
2018-08-12T17:00:53.347Z,32.21
2018-08-12T17:03:23.131Z,32.34
2018-08-12T17:05:52.876Z,33.02
2018-08-12T17:08:22.525Z,33.78
2018-08-12T17:10:52.245Z,34.35
2018-08-12T17:13:22.003Z,34.86
2018-08-12T17:15:51.754Z,35.84
2018-08-12T17:18:21.265Z,36.61
2018-08-12T17:20:50.643Z,36.61
2018-08-12T17:23:20.323Z,36.90
2018-08-12T17:25:49.964Z,36.93
2018-08-12T17:28:19.584Z,37.65
2018-08-12T17:30:49.914Z,37.34
2018-08-12T17:33:19.687Z,38.18
2018-08-12T17:35:49.438Z,38.39
2018-08-12T17:38:19.063Z,38.05
2018-08-12T17:40:48.573Z,37.90
2018-08-12T17:43:18.284Z,38.00
2018-08-12T17:45:48.115Z,38.19
2018-08-12T17:48:17.776Z,38.83
2018-08-12T17:50:47.304Z,38.48
2018-08-12T17:53:16.801Z,39.20
2018-08-12T17:55:46.399Z,39.37
2018-08-12T17:58:16.039Z,39.37
2018-08-12T18:00:45.545Z,39.00
2018-08-12T18:03:15.066Z,39.14
2018-08-12T18:05:44.555Z,38.99
2018-08-12T18:08:14.845Z,39.52
2018-08-12T18:10:45.539Z,39.46
2018-08-12T18:13:15.135Z,39.33
2018-08-12T18:15:45.073Z,39.05
2018-08-12T18:18:14.901Z,39.24
2018-08-12T18:20:44.455Z,39.15
2018-08-12T18:23:13.914Z,39.13
2018-08-12T18:25:44.114Z,38.76
2018-08-12T18:28:14.148Z,39.23
2018-08-12T18:30:43.838Z,39.74
2018-08-12T18:33:14.782Z,39.60
2018-08-12T18:35:44.851Z,39.73
2018-08-12T18:38:14.481Z,39.13
2018-08-12T18:40:44.075Z,39.06
2018-08-12T18:43:13.918Z,39.41
2018-08-12T18:45:43.694Z,38.85
2018-08-12T18:48:13.513Z,39.14
2018-08-12T18:50:43.229Z,39.07
2018-08-12T18:53:13.374Z,39.13
2018-08-12T18:55:43.158Z,39.46
2018-08-12T18:58:12.810Z,38.75
2018-08-12T19:00:42.553Z,39.51
2018-08-12T19:03:12.311Z,39.21
2018-08-12T19:05:42.058Z,40.76
2018-08-12T19:08:11.522Z,40.93
2018-08-12T19:10:41.051Z,40.86
2018-08-12T19:13:10.447Z,40.98
2018-08-12T19:15:40.003Z,41.71
2018-08-12T19:18:09.495Z,40.97
2018-08-12T19:20:38.913Z,39.51
2018-08-12T19:23:08.608Z,40.14
2018-08-12T19:25:38.831Z,40.07
2018-08-12T19:28:08.515Z,40.65
2018-08-12T19:30:37.914Z,40.20
2018-08-12T19:33:07.605Z,41.00
2018-08-12T19:35:37.774Z,41.03
2018-08-12T19:38:07.337Z,41.66
2018-08-12T19:40:36.935Z,41.49
2018-08-12T19:43:06.923Z,40.63
2018-08-12T19:45:36.541Z,40.13
2018-08-12T19:48:06.259Z,38.78
2018-08-12T19:50:35.686Z,39.29
2018-08-12T19:53:05.375Z,41.62
2018-08-12T19:55:34.873Z,41.90
2018-08-12T19:58:04.485Z,42.92
2018-08-12T20:00:34.157Z,42.79
2018-08-12T20:03:03.892Z,42.53
2018-08-12T20:05:33.466Z,42.60
2018-08-12T20:08:03.258Z,43.79
2018-08-12T20:10:32.839Z,44.31
2018-08-12T20:13:02.271Z,44.83
2018-08-12T20:15:32.027Z,44.78
2018-08-12T20:18:01.592Z,43.82
2018-08-12T20:20:31.181Z,43.02
2018-08-12T20:23:00.825Z,42.60
2018-08-12T20:25:30.702Z,42.25
2018-08-12T20:28:00.207Z,41.52
2018-08-12T20:30:30.020Z,41.35
2018-08-12T20:32:59.893Z,41.15
2018-08-12T20:35:29.657Z,40.81
2018-08-12T20:37:59.207Z,41.03
2018-08-12T20:40:28.666Z,40.96
2018-08-12T20:42:58.481Z,41.03
2018-08-12T20:45:28.395Z,41.15
2018-08-12T20:47:58.042Z,41.40
2018-08-12T20:50:27.517Z,41.24
2018-08-12T20:52:57.172Z,41.72
2018-08-12T20:55:26.709Z,41.62
2018-08-12T20:57:56.264Z,41.01
2018-08-12T21:00:25.721Z,41.70
2018-08-12T21:02:55.527Z,41.46
2018-08-12T21:05:25.001Z,41.99
2018-08-12T21:07:54.752Z,41.85
2018-08-12T21:10:24.352Z,41.43
2018-08-12T21:12:54.110Z,41.84
2018-08-12T21:15:24.068Z,42.30
2018-08-12T21:17:53.521Z,42.97
2018-08-12T21:20:23.196Z,43.09
2018-08-12T21:22:52.739Z,43.61
2018-08-12T21:25:22.196Z,43.50
2018-08-12T21:27:51.740Z,44.03
2018-08-12T21:30:21.405Z,42.92
2018-08-12T21:32:51.122Z,42.17
2018-08-12T21:35:20.901Z,42.95
2018-08-12T21:37:50.853Z,42.59
2018-08-12T21:40:20.267Z,42.92
2018-08-12T21:42:50.245Z,42.79
2018-08-12T21:45:20.066Z,43.33
2018-08-12T21:47:49.545Z,43.78
2018-08-12T21:50:19.263Z,43.70
2018-08-12T21:52:48.832Z,44.18
2018-08-12T21:55:24.070Z,44.33
2018-08-12T21:57:53.648Z,44.01
2018-08-12T22:00:23.287Z,45.21
2018-08-12T22:02:53.070Z,44.73
2018-08-12T22:05:23.105Z,44.96
2018-08-12T22:07:52.766Z,45.78
2018-08-12T22:10:22.301Z,45.90
2018-08-12T22:12:51.843Z,46.00
2018-08-12T22:15:21.541Z,45.85
2018-08-12T22:17:51.082Z,46.19
2018-08-12T22:20:20.548Z,46.08
2018-08-12T22:22:50.333Z,46.87
2018-08-12T22:25:19.860Z,46.78
2018-08-12T22:27:49.718Z,47.06
2018-08-12T22:30:19.398Z,46.86
2018-08-12T22:32:48.794Z,47.63
2018-08-12T22:35:18.494Z,47.87
2018-08-12T22:37:48.131Z,48.62
2018-08-12T22:40:20.278Z,49.08
2018-08-12T22:42:49.888Z,48.76
2018-08-12T22:45:19.534Z,49.20
2018-08-12T22:47:49.136Z,49.64
2018-08-12T22:50:19.683Z,49.64
2018-08-12T22:52:49.387Z,49.89
2018-08-12T22:55:18.909Z,50.30
2018-08-12T22:57:58.693Z,49.60
2018-08-12T23:00:41.216Z,49.57
2018-08-12T23:03:21.976Z,50.29
2018-08-12T23:06:02.943Z,50.53
2018-08-12T23:08:43.159Z,51.25
2018-08-12T23:11:23.258Z,51.57
2018-08-12T23:14:04.017Z,50.70
2018-08-12T23:16:51.473Z,50.22
2018-08-12T23:19:34.567Z,51.14
2018-08-12T23:22:15.626Z,51.26
2018-08-12T23:24:58.413Z,52.34
2018-08-12T23:27:28.064Z,52.45
2018-08-12T23:29:57.552Z,52.81
2018-08-12T23:32:27.410Z,53.13
2018-08-12T23:34:57.069Z,53.78
2018-08-12T23:37:26.675Z,54.09
2018-08-12T23:39:56.369Z,54.69
2018-08-12T23:42:26.015Z,55.36
2018-08-12T23:44:55.644Z,55.47
2018-08-12T23:47:25.204Z,55.44
2018-08-12T23:49:54.740Z,56.31
2018-08-12T23:52:24.123Z,57.13
2018-08-12T23:54:53.836Z,56.23
2018-08-12T23:57:23.385Z,56.26
2018-08-12T23:59:52.784Z,56.46
